首页
METAR-TAF:

METAR-TAF

机场 :

伦敦斯坦斯特德机场

坦斯特德機場, 英格兰

纬度: 51-53N, 经度: 000-14E, 海拔: 106米

当前天气观测

该预报发布于21分钟前的23:50 UTC
风速3节,风向西转西南
温度 19°C
湿度 83%
气压 1018 hPa
能见度10公里或以上
小雨

METAR: EGSS 242350Z AUTO 25003KT 9999 -RA NCD 19/16 Q1018

时间: 01:11 (00:11 UTC)

预报

该预报发布于1小时和8分钟前的23:03 UTC
预报有效从25日的 00点(UTC)到 26日的 06点(UTC)
风速6节,风向
能见度10公里或以上
散云层高于4500英尺
短暂存在
从 25日的 00点(UTC)到 25日的 06点(UTC)
能見度: 3000
大雨, 雷暴, 雨
几率 30% :
短暂存在
从 25日的 00点(UTC)到 25日的 06点(UTC)
风速15节,风向多变,有时为25节阵风
能見度: 1200
多云层高于300英尺
多云层高于4500英尺, 积雨云.
雷暴, 大雨
短暂存在
从 25日的 06点(UTC)到 25日的 12点(UTC)
能見度: 8000
多云层高于700英尺
几率 30% :
短暂存在
从 25日的 06点(UTC)到 25日的 09点(UTC)
能見度: 2000
多云层高于300英尺
轻雾
成为
从 25日的 18点(UTC)到 25日的 21点(UTC)
能見度: 6000
多云层高于700英尺
短暂存在
从 25日的 21点(UTC)到 26日的 06点(UTC)
能見度: 3000
多云层高于300英尺
轻雾

TAF: EGSS 242303Z 2500/2606 01006KT 9999 SCT045 TEMPO 2500/2506 3000 +RA TSRA PROB30 TEMPO 2500/2506 VRB15G25KT 1200 +TSRA BKN003 BKN045CB TEMPO 2506/2512 8000 BKN007 PROB30 TEMPO 2506/2509 2000 BR BKN003 BECMG 2518/2521 6000 BKN007 TEMPO 2521/2606 3000 BR BKN003

超过4000个机场的气象观测和天气预报(METAR&TAF报告)。

可查询的气象台以黄色和红色小点在地图上表示。

将鼠标移到小点上方,可查看气象台名称。

然后点击查看天气观测和预报。

如需切换地图:点击带黑十字的绿色按钮放大地图;点击带横线的绿色按钮缩小地图;或者点击绿色箭头查看邻近地区的地图。


METAR-TAF: